createdAt,value
2018-08-25T00:02:00.357Z,34.00
2018-08-25T00:04:28.719Z,34.30
2018-08-25T00:06:57.155Z,34.60
2018-08-25T00:09:25.491Z,35.00
2018-08-25T00:11:53.786Z,34.50
2018-08-25T00:14:22.113Z,35.00
2018-08-25T00:16:50.567Z,34.80
2018-08-25T00:19:18.860Z,34.80
2018-08-25T00:21:47.183Z,34.80
2018-08-25T00:24:15.595Z,35.20
2018-08-25T00:26:43.968Z,34.50
2018-08-25T00:29:12.289Z,34.70
2018-08-25T00:31:40.627Z,34.80
2018-08-25T00:34:08.911Z,35.10
2018-08-25T00:36:37.235Z,34.90
2018-08-25T00:39:08.378Z,35.10
2018-08-25T00:41:37.320Z,35.10
2018-08-25T00:44:05.647Z,35.10
2018-08-25T00:46:34.070Z,35.10
2018-08-25T00:49:02.416Z,35.00
2018-08-25T00:51:30.735Z,35.20
2018-08-25T00:53:59.099Z,35.20
2018-08-25T00:56:27.493Z,35.20
2018-08-25T00:58:55.852Z,35.00
2018-08-25T01:01:24.246Z,34.90
2018-08-25T01:03:52.566Z,34.90
2018-08-25T01:06:20.939Z,35.00
2018-08-25T01:08:49.386Z,35.00
2018-08-25T01:11:17.800Z,35.10
2018-08-25T01:13:46.107Z,34.90
2018-08-25T01:16:14.507Z,34.90
2018-08-25T01:18:42.900Z,34.90
2018-08-25T01:21:11.238Z,34.70
2018-08-25T01:23:39.646Z,34.50
2018-08-25T01:26:07.982Z,34.50
2018-08-25T01:28:36.261Z,34.60
2018-08-25T01:31:04.708Z,34.60
2018-08-25T01:33:32.999Z,34.50
2018-08-25T01:36:01.395Z,34.50
2018-08-25T01:38:29.803Z,34.50
2018-08-25T01:40:58.840Z,34.50
2018-08-25T01:43:27.192Z,34.50
2018-08-25T01:45:55.492Z,34.80
2018-08-25T01:48:23.831Z,34.80
2018-08-25T01:50:52.183Z,34.80
2018-08-25T01:53:20.506Z,35.10
2018-08-25T01:55:48.916Z,35.20
2018-08-25T01:58:17.518Z,35.20
2018-08-25T02:00:45.981Z,35.60
2018-08-25T02:03:14.313Z,35.80
2018-08-25T02:05:43.240Z,35.90
2018-08-25T02:08:11.511Z,35.90
2018-08-25T02:10:39.823Z,36.00
2018-08-25T02:13:08.238Z,36.10
2018-08-25T02:15:36.527Z,36.20
2018-08-25T02:18:04.947Z,36.40
2018-08-25T02:20:33.259Z,36.60
2018-08-25T02:23:01.627Z,36.70
2018-08-25T02:25:29.964Z,36.70
2018-08-25T02:27:58.367Z,36.90
2018-08-25T02:30:26.680Z,37.00
2018-08-25T02:32:55.071Z,37.10
2018-08-25T02:35:23.395Z,37.10
2018-08-25T02:37:51.728Z,37.20
2018-08-25T02:40:20.063Z,37.20
2018-08-25T02:42:48.487Z,37.40
2018-08-25T02:45:16.883Z,37.40
2018-08-25T02:47:45.313Z,37.60
2018-08-25T02:50:13.696Z,37.70
2018-08-25T02:52:42.024Z,37.80
2018-08-25T02:55:10.365Z,37.80
2018-08-25T02:57:38.743Z,38.20
2018-08-25T03:00:07.192Z,38.30
2018-08-25T03:02:35.542Z,38.50
2018-08-25T03:05:03.847Z,38.50
2018-08-25T03:07:32.281Z,38.60
2018-08-25T03:10:00.579Z,38.80
2018-08-25T03:12:28.895Z,38.80
2018-08-25T03:14:57.184Z,38.90
2018-08-25T03:17:25.479Z,39.00
2018-08-25T03:19:53.768Z,39.00
2018-08-25T03:22:22.174Z,39.10
2018-08-25T03:24:50.469Z,39.10
2018-08-25T03:27:18.810Z,39.20
2018-08-25T03:29:47.108Z,39.20
2018-08-25T03:32:15.516Z,39.40
2018-08-25T03:34:43.982Z,39.40
2018-08-25T03:37:12.324Z,39.60
2018-08-25T03:39:40.640Z,39.70
2018-08-25T03:42:08.947Z,39.80
2018-08-25T03:44:37.237Z,40.10
2018-08-25T03:47:05.943Z,40.30
2018-08-25T03:49:34.309Z,40.40
2018-08-25T03:52:02.709Z,40.40
2018-08-25T03:54:31.051Z,40.40
2018-08-25T03:56:59.372Z,40.40
2018-08-25T03:59:27.665Z,40.40
2018-08-25T04:01:55.993Z,40.40
2018-08-25T04:04:24.304Z,40.60
2018-08-25T04:06:52.614Z,40.70
2018-08-25T04:09:20.989Z,40.80
2018-08-25T04:11:49.306Z,40.80
2018-08-25T04:14:17.814Z,40.90
2018-08-25T04:16:46.119Z,40.80
2018-08-25T04:19:20.044Z,40.90
2018-08-25T04:21:48.952Z,40.90
2018-08-25T04:24:17.310Z,40.80
2018-08-25T04:26:45.631Z,40.70
2018-08-25T04:29:14.309Z,40.80
2018-08-25T04:31:42.708Z,40.90
2018-08-25T04:34:11.045Z,40.90
2018-08-25T04:36:39.495Z,40.80
2018-08-25T04:39:09.723Z,41.00
2018-08-25T04:41:38.015Z,41.10
2018-08-25T04:44:06.445Z,41.20
2018-08-25T04:46:34.767Z,41.20
2018-08-25T04:49:03.140Z,41.20
2018-08-25T04:51:31.468Z,41.30
2018-08-25T04:53:59.795Z,41.10
2018-08-25T04:56:28.072Z,41.30
2018-08-25T04:58:56.393Z,41.30
2018-08-25T05:01:24.904Z,41.10
2018-08-25T05:03:54.281Z,41.30
2018-08-25T05:06:22.716Z,41.30
2018-08-25T05:08:51.121Z,41.40
2018-08-25T05:11:19.511Z,40.90
2018-08-25T05:13:47.967Z,41.40
2018-08-25T05:16:16.305Z,41.60
2018-08-25T05:18:44.782Z,41.50
2018-08-25T05:21:13.192Z,41.80
2018-08-25T05:23:41.530Z,41.80
2018-08-25T05:26:09.959Z,41.80
2018-08-25T05:28:38.343Z,41.70
2018-08-25T05:31:06.936Z,41.70
2018-08-25T05:33:35.282Z,41.90
2018-08-25T05:36:03.667Z,42.00
2018-08-25T05:38:32.041Z,42.00
2018-08-25T05:41:00.496Z,41.70
2018-08-25T05:43:28.827Z,41.80
2018-08-25T05:45:57.124Z,41.70
2018-08-25T05:48:25.500Z,41.90
2018-08-25T05:50:53.909Z,42.00
2018-08-25T05:53:22.271Z,42.00
2018-08-25T05:55:50.622Z,42.00
2018-08-25T05:58:19.204Z,42.20
2018-08-25T06:00:47.816Z,42.30
2018-08-25T06:03:16.359Z,42.40
2018-08-25T06:05:44.903Z,42.50
2018-08-25T06:08:13.291Z,43.30
2018-08-25T06:10:42.199Z,42.80
2018-08-25T06:13:10.970Z,43.00
2018-08-25T06:15:39.541Z,43.10
2018-08-25T06:18:12.274Z,43.40
2018-08-25T06:20:41.251Z,43.70
2018-08-25T06:23:09.917Z,44.20
2018-08-25T06:25:38.521Z,44.90
2018-08-25T06:28:07.392Z,45.00
2018-08-25T06:30:36.009Z,45.20
2018-08-25T06:33:04.432Z,46.00
2018-08-25T06:35:33.404Z,46.90
2018-08-25T06:38:01.759Z,46.30
2018-08-25T06:40:30.199Z,46.70
2018-08-25T06:42:58.585Z,47.40
2018-08-25T06:45:26.917Z,47.80
2018-08-25T06:47:55.284Z,48.60
2018-08-25T06:50:23.691Z,49.00
2018-08-25T06:52:52.000Z,49.30
2018-08-25T06:55:21.071Z,48.60
2018-08-25T06:57:49.610Z,49.50
2018-08-25T07:00:18.436Z,49.40
2018-08-25T07:02:46.843Z,50.00
2018-08-25T07:05:15.259Z,49.30
2018-08-25T07:07:43.600Z,50.20
2018-08-25T07:10:12.056Z,51.00
2018-08-25T07:12:40.369Z,50.40
2018-08-25T07:15:08.822Z,50.60
2018-08-25T07:17:37.511Z,50.30
2018-08-25T07:20:05.953Z,50.90
2018-08-25T07:22:34.863Z,51.20
2018-08-25T07:25:03.192Z,50.90
2018-08-25T07:27:31.514Z,51.30
2018-08-25T07:29:59.856Z,51.10
2018-08-25T07:32:28.150Z,51.50
2018-08-25T07:34:56.516Z,51.00
2018-08-25T07:37:24.792Z,51.20
2018-08-25T07:39:53.089Z,51.30
2018-08-25T07:42:21.429Z,51.40
2018-08-25T07:44:50.391Z,51.80
2018-08-25T07:47:18.940Z,51.00
2018-08-25T07:49:47.712Z,51.60
2018-08-25T07:52:16.207Z,52.30
2018-08-25T07:54:44.764Z,50.90
2018-08-25T07:57:13.307Z,50.40
2018-08-25T07:59:41.631Z,51.20
2018-08-25T08:02:10.022Z,50.60
2018-08-25T08:04:38.375Z,50.80
2018-08-25T08:07:06.688Z,51.10
2018-08-25T08:09:35.310Z,50.90
2018-08-25T08:12:03.692Z,51.70
2018-08-25T08:14:32.063Z,51.20
2018-08-25T08:17:00.542Z,51.20
2018-08-25T08:19:28.868Z,50.80
2018-08-25T08:21:57.203Z,51.30
2018-08-25T08:24:25.559Z,50.10
2018-08-25T08:26:53.938Z,50.10
2018-08-25T08:29:22.297Z,50.30
2018-08-25T08:31:50.718Z,50.10
2018-08-25T08:34:19.075Z,50.30
2018-08-25T08:36:47.534Z,51.20
2018-08-25T08:39:15.972Z,50.00
2018-08-25T08:41:44.546Z,49.80
2018-08-25T08:44:12.863Z,49.60
2018-08-25T08:46:41.239Z,49.80
2018-08-25T08:49:09.613Z,49.50
2018-08-25T08:51:38.399Z,49.10
2018-08-25T08:54:06.757Z,48.30
2018-08-25T08:56:35.149Z,47.80
2018-08-25T08:59:03.495Z,48.40
2018-08-25T09:01:32.500Z,46.90
2018-08-25T09:04:00.809Z,46.80
2018-08-25T09:06:29.127Z,46.40
2018-08-25T09:08:57.432Z,47.00
2018-08-25T09:11:25.784Z,46.20
2018-08-25T09:13:54.047Z,45.60
2018-08-25T09:16:23.156Z,45.80
2018-08-25T09:18:51.873Z,45.30
2018-08-25T09:21:20.650Z,45.10
2018-08-25T09:23:49.011Z,44.70
2018-08-25T09:26:17.527Z,43.60
2018-08-25T09:28:45.927Z,42.80
2018-08-25T09:31:14.616Z,42.20
2018-08-25T09:33:45.883Z,41.70
2018-08-25T09:36:14.446Z,41.60
2018-08-25T09:38:42.900Z,41.60
2018-08-25T09:41:11.261Z,41.50
2018-08-25T09:43:39.623Z,41.20
2018-08-25T09:46:08.012Z,40.60
2018-08-25T09:48:36.496Z,40.00
2018-08-25T09:51:05.137Z,38.20
2018-08-25T09:53:33.450Z,36.90
2018-08-25T09:56:01.819Z,35.00
2018-08-25T09:58:30.159Z,34.30
2018-08-25T10:01:04.016Z,33.70
2018-08-25T10:03:32.696Z,33.10
2018-08-25T10:06:01.233Z,33.00
2018-08-25T10:08:29.669Z,32.80
2018-08-25T10:10:58.224Z,32.50
2018-08-25T10:13:26.503Z,32.70
2018-08-25T10:15:54.867Z,31.70
2018-08-25T10:18:23.571Z,30.30
2018-08-25T10:20:52.041Z,29.50
2018-08-25T10:23:20.499Z,28.80
2018-08-25T10:25:51.815Z,28.20
2018-08-25T10:28:20.223Z,27.30
2018-08-25T10:30:49.476Z,25.90
2018-08-25T10:35:52.098Z,23.80
2018-08-25T10:38:21.358Z,22.90
2018-08-25T10:40:49.775Z,21.40
2018-08-25T10:43:18.437Z,20.90
2018-08-25T10:45:46.924Z,20.20
2018-08-25T10:48:15.502Z,20.40
2018-08-25T10:50:44.217Z,20.50
2018-08-25T10:53:12.489Z,20.90
2018-08-25T10:55:40.812Z,21.50
2018-08-25T10:58:09.152Z,21.50
2018-08-25T11:00:37.886Z,21.10
2018-08-25T11:03:06.256Z,20.30
2018-08-25T11:05:34.672Z,20.00
2018-08-25T11:08:03.017Z,20.50
2018-08-25T11:10:31.415Z,20.20
2018-08-25T11:12:59.908Z,19.40
2018-08-25T11:15:28.478Z,20.10
2018-08-25T11:17:56.840Z,19.60
2018-08-25T11:20:25.393Z,19.20
2018-08-25T11:22:53.827Z,20.00
2018-08-25T11:25:22.207Z,21.10
2018-08-25T11:27:50.671Z,21.50
2018-08-25T11:30:19.072Z,21.80
2018-08-25T11:32:47.684Z,22.90
2018-08-25T11:35:16.215Z,23.60
2018-08-25T11:37:45.100Z,23.80
2018-08-25T11:40:13.447Z,24.00
2018-08-25T11:42:41.821Z,24.40
2018-08-25T11:45:10.180Z,23.30
2018-08-25T11:47:38.589Z,22.10
2018-08-25T11:50:07.000Z,21.30
2018-08-25T11:52:35.387Z,20.00
2018-08-25T11:55:03.818Z,20.30
2018-08-25T11:57:32.346Z,20.80
2018-08-25T12:00:00.620Z,21.00
2018-08-25T12:02:29.012Z,21.70
2018-08-25T12:04:57.348Z,20.80
2018-08-25T12:07:25.789Z,21.60
2018-08-25T12:09:54.108Z,21.60
2018-08-25T12:12:22.623Z,20.50
2018-08-25T12:14:51.130Z,21.10
2018-08-25T12:17:19.779Z,20.90
2018-08-25T12:19:48.227Z,20.70
2018-08-25T12:22:16.723Z,20.50
2018-08-25T12:24:45.326Z,20.50
2018-08-25T12:27:13.866Z,20.80
2018-08-25T12:29:45.997Z,21.10
2018-08-25T12:32:14.488Z,20.70
2018-08-25T12:34:42.832Z,20.90
2018-08-25T12:37:11.163Z,20.50
2018-08-25T12:39:39.671Z,20.30
2018-08-25T12:42:08.018Z,20.00
2018-08-25T12:44:36.352Z,20.00
2018-08-25T12:47:05.294Z,20.00
2018-08-25T12:49:33.650Z,19.90
2018-08-25T12:52:03.734Z,21.20
2018-08-25T12:54:32.275Z,20.50
2018-08-25T12:57:00.866Z,21.10
2018-08-25T12:59:29.265Z,21.20
2018-08-25T13:01:57.812Z,20.60
2018-08-25T13:04:26.660Z,20.90
2018-08-25T13:06:55.068Z,21.20
2018-08-25T13:09:23.512Z,20.60
2018-08-25T13:11:51.937Z,20.90
2018-08-25T13:14:20.305Z,20.00
2018-08-25T13:16:48.734Z,20.40
2018-08-25T13:19:17.162Z,21.20
2018-08-25T13:21:45.720Z,20.80
2018-08-25T13:24:14.240Z,19.70
2018-08-25T13:26:42.550Z,19.30
2018-08-25T13:29:11.073Z,18.80
2018-08-25T13:31:39.516Z,18.90
2018-08-25T13:34:07.946Z,18.90
2018-08-25T13:36:36.313Z,18.40
2018-08-25T13:39:07.880Z,17.20
2018-08-25T13:41:36.570Z,17.40
2018-08-25T13:44:05.062Z,17.00
2018-08-25T13:46:33.429Z,16.50
2018-08-25T13:49:01.812Z,16.50
2018-08-25T13:51:30.203Z,16.20
2018-08-25T13:53:58.521Z,16.40
2018-08-25T13:56:26.919Z,16.30
2018-08-25T13:58:55.367Z,16.20
2018-08-25T14:01:23.707Z,16.30
2018-08-25T14:03:52.358Z,15.20
2018-08-25T14:06:20.856Z,16.00
2018-08-25T14:08:49.310Z,16.00
2018-08-25T14:11:17.666Z,16.20
2018-08-25T14:13:46.152Z,16.30
2018-08-25T14:16:14.678Z,16.20
2018-08-25T14:18:43.037Z,17.20
2018-08-25T14:21:11.419Z,17.70
2018-08-25T14:23:39.743Z,18.10
2018-08-25T14:26:08.189Z,18.40
2018-08-25T14:28:36.557Z,19.20
2018-08-25T14:31:04.894Z,19.40
2018-08-25T14:33:33.204Z,19.20
2018-08-25T14:36:01.878Z,18.70
2018-08-25T14:38:30.374Z,18.60
2018-08-25T14:40:58.786Z,18.30
2018-08-25T14:43:27.157Z,17.60
2018-08-25T14:45:55.463Z,17.90
2018-08-25T14:48:24.127Z,17.70
2018-08-25T14:50:52.760Z,17.90
2018-08-25T14:53:21.269Z,18.70
2018-08-25T14:55:49.782Z,18.10
2018-08-25T14:58:19.036Z,18.40
2018-08-25T15:00:47.661Z,18.80
2018-08-25T15:03:16.223Z,19.30
2018-08-25T15:05:44.793Z,19.40
2018-08-25T15:08:13.155Z,19.90
2018-08-25T15:10:41.503Z,19.80
2018-08-25T15:13:09.902Z,20.30
2018-08-25T15:15:38.364Z,20.60
2018-08-25T15:18:06.789Z,20.70
2018-08-25T15:20:35.215Z,20.60
2018-08-25T15:23:03.708Z,20.50
2018-08-25T15:25:32.180Z,20.40
2018-08-25T15:28:00.506Z,20.60
2018-08-25T15:30:28.867Z,20.80
2018-08-25T15:32:57.232Z,20.70
2018-08-25T15:35:25.621Z,21.10
2018-08-25T15:37:54.124Z,21.40
2018-08-25T15:40:22.512Z,21.90
2018-08-25T15:42:51.201Z,21.90
2018-08-25T15:45:19.660Z,21.80
2018-08-25T15:47:48.166Z,21.70
2018-08-25T15:50:16.915Z,21.70
2018-08-25T15:52:45.388Z,21.90
2018-08-25T15:55:14.072Z,21.90
2018-08-25T15:57:42.531Z,22.00
2018-08-25T16:00:10.894Z,22.40
2018-08-25T16:02:39.256Z,22.90
2018-08-25T16:05:07.611Z,22.40
2018-08-25T16:07:35.932Z,22.80
2018-08-25T16:10:04.528Z,22.80
2018-08-25T16:12:33.047Z,23.20
2018-08-25T16:15:01.291Z,23.30
2018-08-25T16:17:29.959Z,23.00
2018-08-25T16:19:58.456Z,23.20
2018-08-25T16:22:26.867Z,23.00
2018-08-25T16:24:55.284Z,22.80
2018-08-25T16:27:23.670Z,22.20
2018-08-25T16:29:52.015Z,23.30
2018-08-25T16:32:20.670Z,22.40
2018-08-25T16:34:49.099Z,22.50
2018-08-25T16:37:17.617Z,23.40
2018-08-25T16:39:46.466Z,22.90
2018-08-25T16:42:14.822Z,22.80
2018-08-25T16:44:43.156Z,24.30
2018-08-25T16:47:11.462Z,24.40
2018-08-25T16:49:39.815Z,24.20
2018-08-25T16:52:08.340Z,24.20
2018-08-25T16:54:36.648Z,24.40
2018-08-25T16:57:05.218Z,24.20
2018-08-25T16:59:33.588Z,23.90
2018-08-25T17:02:02.182Z,24.00
2018-08-25T17:04:30.579Z,24.00
2018-08-25T17:06:58.906Z,23.30
2018-08-25T17:09:27.233Z,23.60
2018-08-25T17:11:55.667Z,24.40
2018-08-25T17:14:24.324Z,23.80
2018-08-25T17:16:52.842Z,23.80
2018-08-25T17:19:21.327Z,23.60
2018-08-25T17:21:49.774Z,24.20
2018-08-25T17:24:18.370Z,24.10
2018-08-25T17:26:47.101Z,24.00
2018-08-25T17:29:15.558Z,24.20
2018-08-25T17:31:43.888Z,24.00
2018-08-25T17:34:12.347Z,24.60
2018-08-25T17:36:40.703Z,24.40
2018-08-25T17:39:10.330Z,24.20
2018-08-25T17:41:38.837Z,24.30
2018-08-25T17:44:07.497Z,24.70
2018-08-25T17:46:35.856Z,24.70
2018-08-25T17:49:04.355Z,24.70
2018-08-25T17:51:32.885Z,24.60
2018-08-25T17:54:01.208Z,24.90
2018-08-25T17:56:29.559Z,24.90
2018-08-25T17:58:57.919Z,25.00
2018-08-25T18:01:26.381Z,25.00
2018-08-25T18:03:54.794Z,24.90
2018-08-25T18:06:23.337Z,24.90
2018-08-25T18:08:51.944Z,25.10
2018-08-25T18:11:20.285Z,25.10
2018-08-25T18:13:48.571Z,25.10
2018-08-25T18:16:16.870Z,25.10
2018-08-25T18:18:45.186Z,25.40
2018-08-25T18:21:13.877Z,25.40
2018-08-25T18:23:42.539Z,25.30
2018-08-25T18:26:10.975Z,25.50
2018-08-25T18:28:39.284Z,25.70
2018-08-25T18:31:07.591Z,25.90
2018-08-25T18:33:35.924Z,25.70
2018-08-25T18:36:04.223Z,25.70
2018-08-25T18:38:32.500Z,25.90
2018-08-25T18:41:00.849Z,26.20
2018-08-25T18:43:29.328Z,26.60
2018-08-25T18:45:57.634Z,27.90
2018-08-25T18:48:26.130Z,28.30
2018-08-25T18:50:54.527Z,28.50
2018-08-25T18:53:22.927Z,29.10
2018-08-25T18:55:51.211Z,28.80
2018-08-25T18:58:19.487Z,29.40
2018-08-25T19:00:47.753Z,29.70
2018-08-25T19:03:16.059Z,29.60
2018-08-25T19:05:44.423Z,29.80
2018-08-25T19:08:12.819Z,30.10
2018-08-25T19:10:41.139Z,30.20
2018-08-25T19:13:09.656Z,30.30
2018-08-25T19:15:37.977Z,30.30
2018-08-25T19:18:06.330Z,30.00
2018-08-25T19:20:34.619Z,30.50
2018-08-25T19:23:02.900Z,30.60
2018-08-25T19:25:31.200Z,30.70
2018-08-25T19:27:59.638Z,30.60
2018-08-25T19:30:28.145Z,30.80
2018-08-25T19:32:56.471Z,30.90
2018-08-25T19:35:24.915Z,31.00
2018-08-25T19:37:53.324Z,31.10
2018-08-25T19:40:21.721Z,31.30
2018-08-25T19:42:50.178Z,31.30
2018-08-25T19:45:18.431Z,31.30
2018-08-25T19:47:46.938Z,31.30
2018-08-25T19:50:15.261Z,31.40
2018-08-25T19:52:43.663Z,31.30
2018-08-25T19:55:11.964Z,31.30
2018-08-25T19:57:40.233Z,31.50
2018-08-25T20:00:08.553Z,31.50
2018-08-25T20:02:36.940Z,31.70
2018-08-25T20:05:05.269Z,31.80
2018-08-25T20:07:33.582Z,31.90
2018-08-25T20:10:02.016Z,32.00
2018-08-25T20:12:30.556Z,32.10
2018-08-25T20:14:59.021Z,32.30
2018-08-25T20:17:29.176Z,32.30
2018-08-25T20:19:57.595Z,32.50
2018-08-25T20:22:26.045Z,32.60
2018-08-25T20:24:54.504Z,32.50
2018-08-25T20:27:23.020Z,32.30
2018-08-25T20:29:51.557Z,32.40
2018-08-25T20:32:19.827Z,32.40
2018-08-25T20:34:48.334Z,33.00
2018-08-25T20:37:16.643Z,32.60
2018-08-25T20:39:44.971Z,32.50
2018-08-25T20:42:13.351Z,32.60
2018-08-25T20:44:41.800Z,33.20
2018-08-25T20:47:10.313Z,32.70
2018-08-25T20:49:38.695Z,33.00
2018-08-25T20:52:07.023Z,33.10
2018-08-25T20:54:35.377Z,32.40
2018-08-25T20:57:03.741Z,32.70
2018-08-25T20:59:32.193Z,33.50
2018-08-25T21:02:00.696Z,32.90
2018-08-25T21:04:29.304Z,32.90
2018-08-25T21:06:57.630Z,33.10
2018-08-25T21:09:26.027Z,33.10
2018-08-25T21:11:54.905Z,33.10
2018-08-25T21:14:23.245Z,33.20
2018-08-25T21:16:51.602Z,33.20
2018-08-25T21:19:19.903Z,33.50
2018-08-25T21:21:48.369Z,33.20
2018-08-25T21:24:16.684Z,33.30
2018-08-25T21:26:45.118Z,33.40
2018-08-25T21:29:13.408Z,33.70
2018-08-25T21:31:41.783Z,33.70
2018-08-25T21:34:10.089Z,33.90
2018-08-25T21:36:38.597Z,34.20
2018-08-25T21:39:09.590Z,34.30
2018-08-25T21:41:37.902Z,34.80
2018-08-25T21:44:06.294Z,34.70
2018-08-25T21:46:34.595Z,34.80
2018-08-25T21:49:02.929Z,34.50
2018-08-25T21:51:31.540Z,34.90
2018-08-25T21:54:00.248Z,35.00
2018-08-25T21:56:28.817Z,35.00
2018-08-25T21:58:57.349Z,35.20
2018-08-25T22:01:25.745Z,35.40
2018-08-25T22:03:54.190Z,35.60
2018-08-25T22:06:22.668Z,35.60
2018-08-25T22:08:50.996Z,35.80
2018-08-25T22:11:19.556Z,35.70
2018-08-25T22:13:47.804Z,35.80
2018-08-25T22:16:16.079Z,35.90
2018-08-25T22:18:44.379Z,36.30
2018-08-25T22:21:12.750Z,36.30
2018-08-25T22:23:41.016Z,36.40
2018-08-25T22:26:09.338Z,36.20
2018-08-25T22:28:37.819Z,36.20
2018-08-25T22:31:06.210Z,36.40
2018-08-25T22:33:34.501Z,36.20
2018-08-25T22:36:02.797Z,36.10
2018-08-25T22:38:31.092Z,36.10
2018-08-25T22:40:59.591Z,36.00
2018-08-25T22:43:27.948Z,35.90
2018-08-25T22:45:56.288Z,35.90
2018-08-25T22:48:24.672Z,36.00
2018-08-25T22:50:53.812Z,36.60
2018-08-25T22:53:22.231Z,36.10
2018-08-25T22:55:50.530Z,36.30
2018-08-25T22:58:18.831Z,36.50
2018-08-25T23:00:47.230Z,36.60
2018-08-25T23:03:15.516Z,36.70
2018-08-25T23:05:43.872Z,36.90
2018-08-25T23:08:12.164Z,37.10
2018-08-25T23:10:40.731Z,37.40
2018-08-25T23:13:08.999Z,37.50
2018-08-25T23:15:37.346Z,37.60
2018-08-25T23:18:05.768Z,37.80
2018-08-25T23:20:34.083Z,38.00
2018-08-25T23:23:02.642Z,38.20
2018-08-25T23:25:31.027Z,38.30
2018-08-25T23:27:59.345Z,38.60
2018-08-25T23:30:27.715Z,38.80
2018-08-25T23:32:55.895Z,39.00
2018-08-25T23:35:24.176Z,39.30
2018-08-25T23:37:52.463Z,39.20
2018-08-25T23:40:20.748Z,39.80
2018-08-25T23:42:49.030Z,39.20
2018-08-25T23:45:17.320Z,39.40
2018-08-25T23:47:45.608Z,39.20
2018-08-25T23:50:13.905Z,39.20
2018-08-25T23:52:42.191Z,39.00
2018-08-25T23:55:10.493Z,38.90
2018-08-25T23:57:39.019Z,38.90
